Time;durP1;ratioP1;P1;durP2;ratioP2;P2;SDS_P1;SDS_P2;PMS_P1;PMS_P2;Temp;Humidity;BMP_temperature;BMP_pressure;BME280_temperature;BME280_humidity;BME280_pressure;Samples;Min_cycle;Max_cycle;Signal;HPM_P1;HPM_P2
2023/06/03 00:00:30;;;;;;;0.60;0.52;;;;;;;;;;5013336;28;59324;-64
2023/06/03 00:02:56;;;;;;;0.60;0.60;;;;;;;;;;5017252;28;59103;-66
2023/06/03 00:05:21;;;;;;;0.47;0.47;;;;;;;;;;5012484;28;59652;-66
2023/06/03 00:07:46;;;;;;;0.35;0.30;;;;;;;;;;5015829;28;59367;-64
2023/06/03 00:10:12;;;;;;;0.30;0.30;;;;;;;;;;5018114;28;59279;-66
2023/06/03 00:12:38;;;;;;;0.40;0.40;;;;;;;;;;5013054;28;59626;-66
2023/06/03 00:15:03;;;;;;;1.37;0.40;;;;;;;;;;5013130;28;59253;-65
2023/06/03 00:17:28;;;;;;;0.47;0.40;;;;;;;;;;5019077;28;59164;-66
2023/06/03 00:19:54;;;;;;;0.67;0.50;;;;;;;;;;5016818;28;60176;-66
2023/06/03 00:22:21;;;;;;;0.40;0.40;;;;;;;;;;5011349;28;60219;-65
2023/06/03 00:24:46;;;;;;;0.75;0.50;;;;;;;;;;5008386;28;59032;-66
2023/06/03 00:27:11;;;;;;;0.50;0.20;;;;;;;;;;5015515;28;59118;-66
2023/06/03 00:29:36;;;;;;;0.47;0.40;;;;;;;;;;5015443;28;59447;-66
2023/06/03 00:32:01;;;;;;;0.32;0.32;;;;;;;;;;5016369;28;59062;-66
2023/06/03 00:34:27;;;;;;;0.57;0.53;;;;;;;;;;5012472;28;59451;-65
2023/06/03 00:36:52;;;;;;;0.50;0.40;;;;;;;;;;5019182;28;59505;-66
2023/06/03 00:39:17;;;;;;;0.40;0.30;;;;;;;;;;5010205;28;60041;-66
2023/06/03 00:41:42;;;;;;;0.70;0.53;;;;;;;;;;5018216;28;60701;-65
2023/06/03 00:44:07;;;;;;;0.43;0.43;;;;;;;;;;5015412;28;59502;-66
2023/06/03 00:46:33;;;;;;;0.30;0.30;;;;;;;;;;5018494;28;59891;-65
2023/06/03 00:48:58;;;;;;;0.70;0.57;;;;;;;;;;5018472;28;59514;-66
2023/06/03 00:51:23;;;;;;;0.60;0.60;;;;;;;;;;5015052;28;59516;-65
2023/06/03 00:53:49;;;;;;;0.47;0.47;;;;;;;;;;5018148;28;59353;-66
2023/06/03 00:56:15;;;;;;;0.20;0.20;;;;;;;;;;5013191;28;59350;-66
2023/06/03 00:58:41;;;;;;;0.40;0.30;;;;;;;;;;5011812;28;59664;-66
2023/06/03 01:01:06;;;;;;;0.50;0.43;;;;;;;;;;5017242;28;59029;-66
2023/06/03 01:03:31;;;;;;;0.40;0.30;;;;;;;;;;5022170;28;59137;-66
2023/06/03 01:06:15;;;;;;;0.70;0.53;;;;;;;;;;5022636;28;59591;-65
2023/06/03 01:08:55;;;;;;;0.55;0.32;;;;;;;;;;5021419;28;59306;-65
2023/06/03 01:11:27;;;;;;;0.20;0.20;;;;;;;;;;5020019;28;59464;-65
2023/06/03 01:13:59;;;;;;;0.50;0.50;;;;;;;;;;5019714;28;59097;-66
2023/06/03 01:16:25;;;;;;;0.35;0.35;;;;;;;;;;5014667;28;59061;-64
2023/06/03 01:18:51;;;;;;;0.65;0.50;;;;;;;;;;5012244;28;59595;-66
2023/06/03 01:21:17;;;;;;;0.40;0.40;;;;;;;;;;5021628;28;59223;-65
2023/06/03 01:23:43;;;;;;;0.50;0.47;;;;;;;;;;5017609;28;59323;-66
2023/06/03 01:26:11;;;;;;;0.70;0.47;;;;;;;;;;5016557;28;61109;-64
2023/06/03 01:28:36;;;;;;;0.85;0.82;;;;;;;;;;5014971;28;59207;-65
2023/06/03 01:31:02;;;;;;;1.00;0.50;;;;;;;;;;5016047;28;59378;-66
2023/06/03 01:33:28;;;;;;;0.57;0.30;;;;;;;;;;5011509;28;59270;-66
2023/06/03 01:35:55;;;;;;;0.52;0.30;;;;;;;;;;5020871;28;59177;-64
2023/06/03 01:38:22;;;;;;;0.65;0.30;;;;;;;;;;5017083;28;59168;-65
2023/06/03 01:40:47;;;;;;;0.75;0.50;;;;;;;;;;5017296;28;59582;-65
2023/06/03 01:43:12;;;;;;;0.73;0.40;;;;;;;;;;5013308;28;59414;-65
2023/06/03 01:45:38;;;;;;;0.20;0.20;;;;;;;;;;5023961;28;60848;-66
2023/06/03 01:48:03;;;;;;;0.80;0.40;;;;;;;;;;5013268;28;60429;-66
2023/06/03 01:50:28;;;;;;;0.45;0.45;;;;;;;;;;5015852;28;59556;-66
2023/06/03 01:52:53;;;;;;;0.40;0.30;;;;;;;;;;5020275;28;60018;-66
2023/06/03 01:55:18;;;;;;;0.30;0.30;;;;;;;;;;5023027;28;59209;-64
2023/06/03 01:57:46;;;;;;;0.23;0.23;;;;;;;;;;5015303;28;59058;-66
2023/06/03 02:00:11;;;;;;;0.45;0.38;;;;;;;;;;5012981;28;59059;-65
2023/06/03 02:02:37;;;;;;;0.30;0.30;;;;;;;;;;5017750;28;59173;-64
2023/06/03 02:05:03;;;;;;;0.40;0.40;;;;;;;;;;5012978;28;59849;-65
2023/06/03 02:07:30;;;;;;;0.50;0.32;;;;;;;;;;5013962;28;59250;-66
2023/06/03 02:09:55;;;;;;;0.50;0.40;;;;;;;;;;5012544;28;59282;-65
2023/06/03 02:12:20;;;;;;;0.30;0.30;;;;;;;;;;5014050;28;61804;-64
2023/06/03 02:14:46;;;;;;;0.60;0.30;;;;;;;;;;5014888;28;60471;-66
2023/06/03 02:17:11;;;;;;;0.70;0.30;;;;;;;;;;5011188;28;59444;-65
2023/06/03 02:19:37;;;;;;;0.65;0.50;;;;;;;;;;5017357;28;59253;-61
2023/06/03 02:22:03;;;;;;;0.40;0.35;;;;;;;;;;5016454;28;59544;-65
2023/06/03 02:24:28;;;;;;;0.40;0.40;;;;;;;;;;5015305;28;59982;-66
2023/06/03 02:26:54;;;;;;;0.37;0.33;;;;;;;;;;5019510;28;59287;-66
2023/06/03 02:29:20;;;;;;;0.20;0.20;;;;;;;;;;5017683;28;59199;-65
2023/06/03 02:31:45;;;;;;;0.40;0.40;;;;;;;;;;5015010;28;59279;-65
2023/06/03 02:34:11;;;;;;;0.35;0.35;;;;;;;;;;5014958;28;59156;-65
2023/06/03 02:36:37;;;;;;;0.43;0.30;;;;;;;;;;5012570;28;59112;-66
2023/06/03 02:39:02;;;;;;;0.35;0.25;;;;;;;;;;5012526;28;59247;-66
2023/06/03 02:41:27;;;;;;;0.40;0.40;;;;;;;;;;5022010;28;59246;-66
2023/06/03 02:43:53;;;;;;;0.30;0.30;;;;;;;;;;5019582;28;59737;-65
2023/06/03 02:46:18;;;;;;;0.30;0.30;;;;;;;;;;5020388;28;59249;-66
2023/06/03 02:48:43;;;;;;;0.23;0.20;;;;;;;;;;5015013;28;59521;-64
2023/06/03 02:51:08;;;;;;;0.35;0.35;;;;;;;;;;5014977;28;59230;-66
2023/06/03 02:53:33;;;;;;;0.33;0.33;;;;;;;;;;5023858;28;59497;-66
2023/06/03 02:55:59;;;;;;;0.90;0.30;;;;;;;;;;5015862;28;59440;-64
2023/06/03 02:58:24;;;;;;;0.20;0.20;;;;;;;;;;5014106;28;59934;-66
2023/06/03 03:00:50;;;;;;;0.57;0.40;;;;;;;;;;5012298;28;59506;-66
2023/06/03 03:03:16;;;;;;;0.25;0.25;;;;;;;;;;5010483;28;59069;-65
2023/06/03 03:05:41;;;;;;;0.40;0.40;;;;;;;;;;5017558;28;59260;-63
2023/06/03 03:08:06;;;;;;;0.20;0.20;;;;;;;;;;5014547;28;59187;-65
2023/06/03 03:10:35;;;;;;;0.40;0.40;;;;;;;;;;5018157;28;59757;-66
2023/06/03 03:13:00;;;;;;;0.35;0.30;;;;;;;;;;5014120;28;59319;-65
2023/06/03 03:15:25;;;;;;;0.47;0.20;;;;;;;;;;5012981;28;59225;-66
2023/06/03 03:17:50;;;;;;;0.30;0.30;;;;;;;;;;5016614;28;59172;-65
2023/06/03 03:20:16;;;;;;;0.10;0.10;;;;;;;;;;5012205;28;59544;-65
2023/06/03 03:22:44;;;;;;;0.32;0.20;;;;;;;;;;5015793;28;59130;-66
2023/06/03 03:25:09;;;;;;;0.17;0.17;;;;;;;;;;5013889;28;59279;-65
2023/06/03 03:27:34;;;;;;;0.20;0.20;;;;;;;;;;5015699;28;59114;-66
2023/06/03 03:30:02;;;;;;;0.33;0.33;;;;;;;;;;5014870;28;61883;-66
2023/06/03 03:32:27;;;;;;;;;;;;;;;;;;5011124;28;59254;-66
2023/06/03 03:35:04;;;;;;;0.25;0.25;;;;;;;;;;5013574;28;60786;-65
2023/06/03 03:37:29;;;;;;;0.55;0.55;;;;;;;;;;5014324;28;59377;-65
2023/06/03 03:39:54;;;;;;;0.20;0.20;;;;;;;;;;5017056;28;59742;-66
2023/06/03 03:42:19;;;;;;;0.45;0.32;;;;;;;;;;5016532;28;59247;-66
2023/06/03 03:44:44;;;;;;;0.45;0.35;;;;;;;;;;5015458;28;59509;-66
2023/06/03 03:47:11;;;;;;;0.30;0.30;;;;;;;;;;5020574;28;59066;-65
2023/06/03 03:49:36;;;;;;;0.30;0.30;;;;;;;;;;5015337;28;59255;-66
2023/06/03 03:52:03;;;;;;;0.57;0.30;;;;;;;;;;5013579;28;59555;-63
2023/06/03 03:54:28;;;;;;;0.20;0.20;;;;;;;;;;5016281;28;59573;-66
2023/06/03 03:56:54;;;;;;;0.50;0.30;;;;;;;;;;5017430;28;58685;-62
2023/06/03 03:59:19;;;;;;;0.45;0.20;;;;;;;;;;5015983;28;59153;-65
2023/06/03 04:01:44;;;;;;;0.20;0.20;;;;;;;;;;5015252;28;59033;-66
2023/06/03 04:04:10;;;;;;;0.40;0.40;;;;;;;;;;5009799;28;58751;-66
2023/06/03 04:06:37;;;;;;;0.20;0.20;;;;;;;;;;5015889;28;59580;-66
2023/06/03 04:09:04;;;;;;;0.40;0.32;;;;;;;;;;5007716;28;61490;-66
2023/06/03 04:11:42;;;;;;;0.40;0.30;;;;;;;;;;5016976;28;59523;-66
2023/06/03 04:14:08;;;;;;;0.20;0.20;;;;;;;;;;5013984;28;59240;-66
2023/06/03 04:16:53;;;;;;;0.28;0.28;;;;;;;;;;5013762;28;59180;-65
2023/06/03 04:19:20;;;;;;;0.13;0.13;;;;;;;;;;5014576;28;59458;-64
2023/06/03 04:21:46;;;;;;;0.30;0.30;;;;;;;;;;5021744;28;59431;-66
2023/06/03 04:24:11;;;;;;;0.20;0.20;;;;;;;;;;5015720;28;59123;-65
2023/06/03 04:26:36;;;;;;;0.20;0.20;;;;;;;;;;5020039;28;59362;-66
2023/06/03 04:29:02;;;;;;;0.40;0.40;;;;;;;;;;5015305;28;59365;-66
2023/06/03 04:31:27;;;;;;;0.20;0.20;;;;;;;;;;5015974;28;59391;-66
2023/06/03 04:33:52;;;;;;;0.30;0.30;;;;;;;;;;5019118;28;59287;-66
2023/06/03 04:36:17;;;;;;;0.40;0.30;;;;;;;;;;5014164;28;59066;-65
2023/06/03 04:38:43;;;;;;;0.30;0.30;;;;;;;;;;5018166;28;60310;-66
2023/06/03 04:41:10;;;;;;;0.30;0.20;;;;;;;;;;5017657;28;59277;-66
2023/06/03 04:43:38;;;;;;;0.32;0.32;;;;;;;;;;5018098;28;59621;-65
2023/06/03 04:46:05;;;;;;;0.30;0.30;;;;;;;;;;5014638;28;59259;-65
2023/06/03 04:48:30;;;;;;;0.20;0.20;;;;;;;;;;5019069;28;59716;-66
2023/06/03 04:50:55;;;;;;;0.20;0.20;;;;;;;;;;5016901;28;59233;-65
2023/06/03 04:53:20;;;;;;;0.20;0.20;;;;;;;;;;5022505;28;59177;-66
2023/06/03 04:55:46;;;;;;;0.30;0.20;;;;;;;;;;5014237;28;59188;-65
2023/06/03 04:58:11;;;;;;;0.20;0.20;;;;;;;;;;5015898;28;59326;-65
2023/06/03 05:00:36;;;;;;;0.30;0.30;;;;;;;;;;5018382;28;59091;-66
2023/06/03 05:03:08;;;;;;;0.45;0.45;;;;;;;;;;5013664;28;59782;-66
2023/06/03 05:05:34;;;;;;;0.30;0.30;;;;;;;;;;5020989;28;60501;-66
2023/06/03 05:07:59;;;;;;;0.20;0.20;;;;;;;;;;5019578;28;59285;-66
2023/06/03 05:10:25;;;;;;;0.10;0.10;;;;;;;;;;5015562;28;59515;-64
2023/06/03 05:12:50;;;;;;;0.30;0.30;;;;;;;;;;5013339;28;59192;-65
2023/06/03 05:15:15;;;;;;;0.20;0.20;;;;;;;;;;5017728;28;59658;-66
2023/06/03 05:17:41;;;;;;;0.20;0.20;;;;;;;;;;5015270;28;59638;-64
2023/06/03 05:20:07;;;;;;;0.10;0.10;;;;;;;;;;5017718;28;59072;-66
2023/06/03 05:22:32;;;;;;;0.22;0.22;;;;;;;;;;5020773;28;59279;-66
2023/06/03 05:24:57;;;;;;;0.20;0.20;;;;;;;;;;5017939;28;59064;-66
2023/06/03 05:27:22;;;;;;;0.20;0.20;;;;;;;;;;5017742;28;59520;-58
2023/06/03 05:29:48;;;;;;;0.10;0.10;;;;;;;;;;5022549;28;59953;-66
2023/06/03 05:32:13;;;;;;;0.33;0.33;;;;;;;;;;5016914;28;62757;-65
2023/06/03 05:34:38;;;;;;;0.37;0.37;;;;;;;;;;5015101;28;59905;-66
2023/06/03 05:37:03;;;;;;;0.10;0.10;;;;;;;;;;5016242;28;59577;-66
2023/06/03 05:39:28;;;;;;;0.30;0.30;;;;;;;;;;5013436;28;59505;-66
2023/06/03 05:41:54;;;;;;;0.20;0.20;;;;;;;;;;5017690;28;59750;-66
2023/06/03 05:44:19;;;;;;;0.30;0.30;;;;;;;;;;5013582;28;59742;-64
2023/06/03 05:46:44;;;;;;;0.30;0.30;;;;;;;;;;5024040;28;59734;-66
2023/06/03 05:49:09;;;;;;;0.17;0.17;;;;;;;;;;5011096;28;59185;-66
2023/06/03 05:51:34;;;;;;;0.30;0.30;;;;;;;;;;5015214;28;59580;-65
2023/06/03 05:53:59;;;;;;;0.20;0.20;;;;;;;;;;5018741;28;59223;-66
2023/06/03 05:56:26;;;;;;;0.20;0.20;;;;;;;;;;5016214;28;59381;-64
2023/06/03 05:58:51;;;;;;;0.17;0.17;;;;;;;;;;5021338;28;59357;-65
2023/06/03 06:01:16;;;;;;;0.35;0.30;;;;;;;;;;5020748;28;59643;-66
2023/06/03 06:03:41;;;;;;;0.17;0.17;;;;;;;;;;5014070;28;59515;-66
2023/06/03 06:06:06;;;;;;;0.17;0.17;;;;;;;;;;5015428;28;59213;-66
2023/06/03 06:08:32;;;;;;;0.40;0.40;;;;;;;;;;5014606;28;60878;-66
2023/06/03 06:10:57;;;;;;;0.43;0.28;;;;;;;;;;5012427;28;59519;-65
2023/06/03 06:13:22;;;;;;;0.90;0.33;;;;;;;;;;5016836;28;59190;-66
2023/06/03 06:15:57;;;;;;;0.30;0.30;;;;;;;;;;5014093;28;59203;-66
2023/06/03 06:18:23;;;;;;;0.40;0.28;;;;;;;;;;5017852;28;59959;-61
2023/06/03 06:20:48;;;;;;;0.10;0.10;;;;;;;;;;5014139;28;59804;-65
2023/06/03 06:23:14;;;;;;;0.43;0.43;;;;;;;;;;5016621;28;59427;-65
2023/06/03 06:25:39;;;;;;;0.40;0.40;;;;;;;;;;5018314;28;59491;-65
2023/06/03 06:28:05;;;;;;;0.25;0.25;;;;;;;;;;5017099;28;60032;-64
2023/06/03 06:30:31;;;;;;;0.30;0.30;;;;;;;;;;5008493;28;59461;-65
2023/06/03 06:32:56;;;;;;;0.30;0.20;;;;;;;;;;5022624;28;59532;-65
2023/06/03 06:35:24;;;;;;;0.28;0.28;;;;;;;;;;5013388;28;59489;-63
2023/06/03 06:37:49;;;;;;;0.30;0.20;;;;;;;;;;5015826;28;59321;-65
2023/06/03 06:40:19;;;;;;;0.20;0.20;;;;;;;;;;5014126;28;61057;-64
2023/06/03 06:42:44;;;;;;;0.10;0.10;;;;;;;;;;5013754;28;59335;-66
2023/06/03 06:45:20;;;;;;;0.10;0.10;;;;;;;;;;5011893;28;59216;-65
2023/06/03 06:47:46;;;;;;;0.10;0.10;;;;;;;;;;5021634;28;59537;-65
2023/06/03 06:50:25;;;;;;;0.23;0.23;;;;;;;;;;5017241;28;59737;-65
2023/06/03 06:52:51;;;;;;;0.35;0.30;;;;;;;;;;5015518;28;59184;-64
2023/06/03 06:55:28;;;;;;;0.20;0.20;;;;;;;;;;5016575;28;59164;-65
2023/06/03 06:57:54;;;;;;;0.20;0.20;;;;;;;;;;5024774;28;59244;-65
2023/06/03 07:00:19;;;;;;;0.43;0.30;;;;;;;;;;5014237;28;59193;-65
2023/06/03 07:02:44;;;;;;;0.37;0.30;;;;;;;;;;5011823;28;59621;-66
2023/06/03 07:05:09;;;;;;;0.23;0.17;;;;;;;;;;5012142;28;59227;-66
2023/06/03 07:07:36;;;;;;;0.45;0.20;;;;;;;;;;5014065;28;60056;-66
2023/06/03 07:10:02;;;;;;;0.40;0.40;;;;;;;;;;5017747;28;59433;-66
2023/06/03 07:12:28;;;;;;;0.17;0.17;;;;;;;;;;5009514;28;59594;-65
2023/06/03 07:14:53;;;;;;;0.50;0.30;;;;;;;;;;5011485;28;59168;-66
2023/06/03 07:17:18;;;;;;;0.87;0.20;;;;;;;;;;5015086;28;59297;-66
2023/06/03 07:19:44;;;;;;;1.05;0.55;;;;;;;;;;5017266;28;59208;-66
2023/06/03 07:22:09;;;;;;;0.30;0.30;;;;;;;;;;5019499;28;59590;-65
2023/06/03 07:24:35;;;;;;;0.60;0.30;;;;;;;;;;5019700;28;59249;-65
2023/06/03 07:27:00;;;;;;;2.35;0.80;;;;;;;;;;5010996;28;59743;-66
2023/06/03 07:29:26;;;;;;;6.00;1.67;;;;;;;;;;5014445;28;59046;-65
2023/06/03 07:31:51;;;;;;;0.28;0.20;;;;;;;;;;5014452;28;59108;-66
2023/06/03 07:34:21;;;;;;;0.43;0.40;;;;;;;;;;5013813;28;59084;-66
2023/06/03 07:36:50;;;;;;;0.60;0.40;;;;;;;;;;5014528;28;59453;-65
2023/06/03 07:39:17;;;;;;;1.13;0.40;;;;;;;;;;5011597;28;59178;-65
2023/06/03 07:41:50;;;;;;;0.95;0.50;;;;;;;;;;5019011;28;59252;-66
2023/06/03 07:44:18;;;;;;;0.68;0.38;;;;;;;;;;5017422;28;59181;-66
2023/06/03 07:46:44;;;;;;;0.70;0.40;;;;;;;;;;5022644;28;60346;-66
2023/06/03 07:49:14;;;;;;;3.00;0.52;;;;;;;;;;5010800;28;59259;-65
2023/06/03 07:51:47;;;;;;;0.63;0.40;;;;;;;;;;5018680;28;59330;-66
2023/06/03 07:54:12;;;;;;;1.75;0.73;;;;;;;;;;5018371;28;59263;-65
2023/06/03 07:56:37;;;;;;;0.75;0.50;;;;;;;;;;5017958;28;59449;-65
2023/06/03 07:59:03;;;;;;;1.42;0.63;;;;;;;;;;5016016;28;59093;-64
2023/06/03 08:01:28;;;;;;;3.33;0.93;;;;;;;;;;5018604;28;59711;-66
2023/06/03 08:03:54;;;;;;;1.07;0.60;;;;;;;;;;5015073;28;59105;-66
2023/06/03 08:06:22;;;;;;;3.22;1.05;;;;;;;;;;5018873;28;59478;-65
2023/06/03 08:08:47;;;;;;;2.15;0.47;;;;;;;;;;5016031;28;59699;-65
2023/06/03 08:11:12;;;;;;;1.73;0.57;;;;;;;;;;5017510;28;59370;-66
2023/06/03 08:13:37;;;;;;;0.60;0.30;;;;;;;;;;5014396;28;61231;-65
2023/06/03 08:16:04;;;;;;;0.70;0.43;;;;;;;;;;5014927;28;59645;-65
2023/06/03 08:18:47;;;;;;;0.85;0.45;;;;;;;;;;5020987;28;59176;-64
2023/06/03 08:21:12;;;;;;;1.77;1.00;;;;;;;;;;5013605;28;59494;-66
2023/06/03 08:23:38;;;;;;;0.30;0.30;;;;;;;;;;5019361;28;59571;-65
2023/06/03 08:26:03;;;;;;;0.80;0.47;;;;;;;;;;5014388;28;60973;-62
2023/06/03 08:28:28;;;;;;;4.33;1.00;;;;;;;;;;5013737;28;59440;-66
2023/06/03 08:30:53;;;;;;;2.00;0.60;;;;;;;;;;5020366;28;59203;-65
2023/06/03 08:33:18;;;;;;;0.88;0.82;;;;;;;;;;5014253;28;60897;-64
2023/06/03 08:35:44;;;;;;;1.02;0.40;;;;;;;;;;5017213;28;59531;-65
2023/06/03 08:38:10;;;;;;;1.77;0.57;;;;;;;;;;5019302;28;59562;-66
2023/06/03 08:40:39;;;;;;;1.13;0.53;;;;;;;;;;5020824;28;59744;-62
2023/06/03 08:43:05;;;;;;;0.52;0.25;;;;;;;;;;5014417;28;59262;-65
2023/06/03 08:45:35;;;;;;;1.88;0.40;;;;;;;;;;5014056;28;60025;-60
2023/06/03 08:48:01;;;;;;;3.40;0.50;;;;;;;;;;5023721;28;59731;-62
2023/06/03 08:50:27;;;;;;;2.67;0.88;;;;;;;;;;5021594;28;59303;-62
2023/06/03 08:52:52;;;;;;;4.53;0.60;;;;;;;;;;5020243;28;60374;-62
2023/06/03 08:55:18;;;;;;;0.47;0.45;;;;;;;;;;5023721;28;60589;-62
2023/06/03 08:57:56;;;;;;;1.75;0.75;;;;;;;;;;5024364;28;59607;-60
2023/06/03 09:00:23;;;;;;;4.93;0.63;;;;;;;;;;5022995;28;59641;-62
2023/06/03 09:02:49;;;;;;;1.50;0.70;;;;;;;;;;5023308;28;59666;-62
2023/06/03 09:05:15;;;;;;;1.75;0.30;;;;;;;;;;5025483;28;59600;-64
2023/06/03 09:07:40;;;;;;;0.88;0.55;;;;;;;;;;5023553;28;59011;-62
2023/06/03 09:10:07;;;;;;;2.00;0.90;;;;;;;;;;5026525;28;59606;-64
2023/06/03 09:12:33;;;;;;;1.08;0.75;;;;;;;;;;5022993;28;59162;-62
2023/06/03 09:14:59;;;;;;;3.30;0.85;;;;;;;;;;5025320;28;59171;-61
2023/06/03 09:17:26;;;;;;;0.55;0.40;;;;;;;;;;5025007;28;59251;-61
2023/06/03 09:19:52;;;;;;;2.37;0.30;;;;;;;;;;5025303;28;60470;-61
2023/06/03 09:22:17;;;;;;;2.00;1.00;;;;;;;;;;5021631;28;59555;-63
2023/06/03 09:24:42;;;;;;;0.40;0.40;;;;;;;;;;5025186;28;59325;-61
2023/06/03 09:27:08;;;;;;;10.20;0.73;;;;;;;;;;5024983;28;59528;-63
2023/06/03 09:29:33;;;;;;;1.70;0.30;;;;;;;;;;5026346;28;59067;-60
2023/06/03 09:31:58;;;;;;;3.00;0.47;;;;;;;;;;5023169;28;59242;-62
2023/06/03 09:34:25;;;;;;;0.60;0.50;;;;;;;;;;5025327;28;59521;-59
2023/06/03 09:36:50;;;;;;;1.92;0.68;;;;;;;;;;5024690;28;59170;-63
2023/06/03 09:39:30;;;;;;;0.73;0.47;;;;;;;;;;5022544;28;59106;-64
2023/06/03 09:41:55;;;;;;;0.65;0.50;;;;;;;;;;5018850;28;59579;-63
2023/06/03 09:44:21;;;;;;;1.77;0.60;;;;;;;;;;5025734;28;59500;-61
2023/06/03 09:46:49;;;;;;;4.73;0.43;;;;;;;;;;5024442;28;59434;-62
2023/06/03 09:49:15;;;;;;;3.28;0.98;;;;;;;;;;5026179;28;59135;-62
2023/06/03 09:51:41;;;;;;;0.40;0.40;;;;;;;;;;5024157;28;59441;-57
2023/06/03 09:54:25;;;;;;;0.13;0.13;;;;;;;;;;5022151;28;58985;-63
2023/06/03 09:56:53;;;;;;;0.70;0.20;;;;;;;;;;5016055;28;59232;-61
2023/06/03 09:59:20;;;;;;;;;;;;;;;;;;5024880;28;62870;-62
2023/06/03 10:01:47;;;;;;;1.20;0.30;;;;;;;;;;5023401;28;59488;-62
2023/06/03 10:04:12;;;;;;;2.47;0.20;;;;;;;;;;5023309;28;59611;-62
2023/06/03 10:06:38;;;;;;;0.50;0.50;;;;;;;;;;5021261;28;59598;-62
2023/06/03 10:09:25;;;;;;;1.35;0.47;;;;;;;;;;5013675;28;59257;-62
2023/06/03 10:11:51;;;;;;;0.80;0.50;;;;;;;;;;5025060;28;59433;-62
2023/06/03 10:14:25;;;;;;;0.75;0.40;;;;;;;;;;5023505;28;59357;-63
2023/06/03 10:17:09;;;;;;;0.75;0.40;;;;;;;;;;5024474;28;59498;-62
2023/06/03 10:19:38;;;;;;;0.80;0.30;;;;;;;;;;5012401;28;60298;-62
2023/06/03 10:22:04;;;;;;;1.40;0.65;;;;;;;;;;5021381;28;59718;-62
2023/06/03 10:24:30;;;;;;;1.23;0.17;;;;;;;;;;5023232;28;59243;-62
2023/06/03 10:26:56;;;;;;;0.43;0.43;;;;;;;;;;5023458;28;59436;-61
2023/06/03 10:29:21;;;;;;;0.20;0.20;;;;;;;;;;5026108;28;59246;-62
2023/06/03 10:31:47;;;;;;;0.10;0.10;;;;;;;;;;5016093;28;60227;-62
2023/06/03 10:34:14;;;;;;;2.40;1.00;;;;;;;;;;5021877;28;59433;-62
2023/06/03 10:36:40;;;;;;;0.10;0.10;;;;;;;;;;5024848;28;59182;-62
2023/06/03 10:39:08;;;;;;;0.22;0.22;;;;;;;;;;5022918;28;59051;-61
2023/06/03 10:41:33;;;;;;;;;;;;;;;;;;5014659;28;59557;-61
2023/06/03 10:43:58;;;;;;;3.25;0.30;;;;;;;;;;5021423;28;59687;-61
2023/06/03 10:46:24;;;;;;;3.57;0.30;;;;;;;;;;5022535;28;59465;-60
2023/06/03 10:48:49;;;;;;;0.30;0.30;;;;;;;;;;5023609;28;59789;-61
2023/06/03 10:51:33;;;;;;;1.83;0.60;;;;;;;;;;5023662;28;59677;-62
2023/06/03 10:54:10;;;;;;;5.65;0.63;;;;;;;;;;5022043;28;59433;-62
2023/06/03 10:56:38;;;;;;;2.25;1.13;;;;;;;;;;5015615;28;59548;-62
2023/06/03 10:59:04;;;;;;;1.83;0.60;;;;;;;;;;5022552;28;61390;-59
2023/06/03 11:01:47;;;;;;;1.70;0.60;;;;;;;;;;5022011;28;59546;-62
2023/06/03 11:04:17;;;;;;;1.48;0.68;;;;;;;;;;5022072;28;59294;-62
2023/06/03 11:06:42;;;;;;;2.05;0.85;;;;;;;;;;5018707;28;59479;-61
2023/06/03 11:09:16;;;;;;;6.73;0.80;;;;;;;;;;5018328;28;58790;-61
2023/06/03 11:11:41;;;;;;;2.22;0.95;;;;;;;;;;5024417;28;59110;-62
2023/06/03 11:14:09;;;;;;;2.07;0.63;;;;;;;;;;5020678;28;59762;-61
2023/06/03 11:16:34;;;;;;;;;;;;;;;;;;5019010;28;59727;-63
2023/06/03 11:19:21;;;;;;;2.30;1.10;;;;;;;;;;5018665;28;59503;-61
2023/06/03 11:21:47;;;;;;;2.97;0.60;;;;;;;;;;5019911;28;58569;-62
2023/06/03 11:24:12;;;;;;;0.82;0.60;;;;;;;;;;5024227;28;59467;-62
2023/06/03 11:26:37;;;;;;;2.63;1.03;;;;;;;;;;5020188;28;59975;-60
2023/06/03 11:29:03;;;;;;;2.93;1.00;;;;;;;;;;5017811;28;59256;-61
2023/06/03 11:31:29;;;;;;;1.70;0.98;;;;;;;;;;5018335;28;59078;-61
2023/06/03 11:34:13;;;;;;;3.50;0.50;;;;;;;;;;5020679;28;59648;-61
2023/06/03 11:36:46;;;;;;;1.92;0.77;;;;;;;;;;5020092;28;60434;-62
2023/06/03 11:39:11;;;;;;;1.90;1.08;;;;;;;;;;5020350;28;59410;-61
2023/06/03 11:41:55;;;;;;;1.70;1.00;;;;;;;;;;5009513;28;59584;-62
2023/06/03 11:44:21;;;;;;;2.25;1.17;;;;;;;;;;5020089;28;59275;-61
2023/06/03 11:46:51;;;;;;;5.80;0.63;;;;;;;;;;5021229;28;60855;-62
2023/06/03 11:49:16;;;;;;;2.00;0.80;;;;;;;;;;5016711;28;59554;-61
2023/06/03 11:51:41;;;;;;;5.63;1.10;;;;;;;;;;5018833;28;59566;-62
2023/06/03 11:54:13;;;;;;;2.83;1.23;;;;;;;;;;5015690;28;59888;-61
2023/06/03 11:56:45;;;;;;;0.80;0.40;;;;;;;;;;5021946;28;60747;-61
2023/06/03 11:59:11;;;;;;;2.47;1.73;;;;;;;;;;5021830;28;59204;-60
2023/06/03 12:01:36;;;;;;;5.40;0.80;;;;;;;;;;5017764;28;59717;-60
2023/06/03 12:04:02;;;;;;;3.33;0.60;;;;;;;;;;5010147;28;58482;-59
2023/06/03 12:06:34;;;;;;;6.05;0.60;;;;;;;;;;5017328;28;59582;-63
2023/06/03 12:08:59;;;;;;;4.28;0.95;;;;;;;;;;5020887;28;59525;-59
2023/06/03 12:11:25;;;;;;;1.70;1.10;;;;;;;;;;5025089;28;59385;-65
2023/06/03 12:13:51;;;;;;;1.20;0.70;;;;;;;;;;5020247;28;59610;-65
2023/06/03 12:16:25;;;;;;;3.33;0.83;;;;;;;;;;5022404;28;59724;-64
2023/06/03 12:18:51;;;;;;;4.13;0.90;;;;;;;;;;5022809;28;59183;-64
2023/06/03 12:21:22;;;;;;;4.80;1.30;;;;;;;;;;5022878;28;59192;-64
2023/06/03 12:23:47;;;;;;;1.65;0.43;;;;;;;;;;5024860;28;59117;-61
2023/06/03 12:26:13;;;;;;;3.35;1.38;;;;;;;;;;5025248;28;59303;-60
2023/06/03 12:28:38;;;;;;;6.13;0.52;;;;;;;;;;5024501;28;59103;-64
2023/06/03 12:31:13;;;;;;;5.53;1.53;;;;;;;;;;5025407;28;59226;-62
2023/06/03 12:33:40;;;;;;;4.18;0.93;;;;;;;;;;5024731;28;59012;-59
2023/06/03 12:36:06;;;;;;;0.88;0.50;;;;;;;;;;5024789;28;61722;-59
2023/06/03 12:38:32;;;;;;;3.22;1.55;;;;;;;;;;5028791;28;59555;-58
2023/06/03 12:41:09;;;;;;;1.33;0.90;;;;;;;;;;5030242;28;59326;-63
2023/06/03 12:43:34;;;;;;;3.20;2.20;;;;;;;;;;5028296;28;59503;-60
2023/06/03 12:46:12;;;;;;;3.00;1.13;;;;;;;;;;5027670;28;60752;-65
2023/06/03 12:48:37;;;;;;;0.57;0.50;;;;;;;;;;5025684;28;59262;-65
2023/06/03 12:51:20;;;;;;;2.77;1.07;;;;;;;;;;5030226;28;59536;-64
2023/06/03 12:53:45;;;;;;;0.70;0.52;;;;;;;;;;5031438;28;59104;-63
2023/06/03 12:56:12;;;;;;;3.83;1.15;;;;;;;;;;5026921;28;59283;-63
2023/06/03 12:58:37;;;;;;;3.30;1.58;;;;;;;;;;5028480;28;59040;-63
2023/06/03 13:01:03;;;;;;;2.28;1.08;;;;;;;;;;5027828;28;59220;-64
2023/06/03 13:03:28;;;;;;;1.50;0.90;;;;;;;;;;5028999;28;60170;-63
2023/06/03 13:05:53;;;;;;;1.35;0.60;;;;;;;;;;5028981;28;59250;-62
2023/06/03 13:08:18;;;;;;;3.08;1.00;;;;;;;;;;5030326;28;59143;-64
2023/06/03 13:10:43;;;;;;;2.23;0.63;;;;;;;;;;5026906;28;59492;-61
2023/06/03 13:13:08;;;;;;;1.90;0.65;;;;;;;;;;5027947;28;59845;-64
2023/06/03 13:15:34;;;;;;;3.70;1.37;;;;;;;;;;5028112;28;59416;-61
2023/06/03 13:17:59;;;;;;;2.78;1.00;;;;;;;;;;5030352;28;58479;-58
2023/06/03 13:20:25;;;;;;;1.88;0.40;;;;;;;;;;5029239;28;59639;-61
2023/06/03 13:22:50;;;;;;;4.47;1.10;;;;;;;;;;5027241;28;59606;-61
2023/06/03 13:25:15;;;;;;;2.87;0.80;;;;;;;;;;5028434;28;59267;-61
2023/06/03 13:27:41;;;;;;;1.17;0.70;;;;;;;;;;5029970;28;60164;-61
2023/06/03 13:30:06;;;;;;;3.90;1.75;;;;;;;;;;5028523;28;59254;-64
2023/06/03 13:32:32;;;;;;;4.38;0.98;;;;;;;;;;5030254;28;60078;-61
2023/06/03 13:34:57;;;;;;;2.70;0.83;;;;;;;;;;5027120;28;59251;-59
2023/06/03 13:37:22;;;;;;;3.08;1.10;;;;;;;;;;5029920;28;59198;-66
2023/06/03 13:39:48;;;;;;;5.00;1.30;;;;;;;;;;5028830;28;59522;-62
2023/06/03 13:42:13;;;;;;;3.60;1.50;;;;;;;;;;5027987;28;59265;-63
2023/06/03 13:44:38;;;;;;;1.50;0.90;;;;;;;;;;5028580;28;59164;-63
2023/06/03 13:47:04;;;;;;;1.00;0.70;;;;;;;;;;5029640;28;59349;-60
2023/06/03 13:49:30;;;;;;;2.53;0.82;;;;;;;;;;5028390;28;59519;-62
2023/06/03 13:51:55;;;;;;;1.70;0.87;;;;;;;;;;5029025;28;59210;-61
2023/06/03 13:54:20;;;;;;;1.33;0.70;;;;;;;;;;5026897;28;59309;-63
2023/06/03 13:56:47;;;;;;;2.40;0.73;;;;;;;;;;5030014;28;59475;-61
2023/06/03 13:59:12;;;;;;;0.50;0.50;;;;;;;;;;5027664;28;60839;-66
2023/06/03 14:01:38;;;;;;;2.60;1.02;;;;;;;;;;5026205;28;59600;-60
2023/06/03 14:04:03;;;;;;;3.37;1.10;;;;;;;;;;5027594;28;59142;-63
2023/06/03 14:06:28;;;;;;;3.40;1.37;;;;;;;;;;5027573;28;59228;-61
2023/06/03 14:08:54;;;;;;;2.55;0.70;;;;;;;;;;5026755;28;59199;-63
2023/06/03 14:11:19;;;;;;;0.90;0.60;;;;;;;;;;5030852;28;59121;-62
2023/06/03 14:13:44;;;;;;;3.40;0.77;;;;;;;;;;5028348;28;59537;-65
2023/06/03 14:16:09;;;;;;;3.97;1.08;;;;;;;;;;5027673;28;59557;-62
2023/06/03 14:18:35;;;;;;;0.47;0.47;;;;;;;;;;5028406;28;59410;-61
2023/06/03 14:21:00;;;;;;;2.30;0.83;;;;;;;;;;5027425;28;59868;-63
2023/06/03 14:23:25;;;;;;;1.37;0.87;;;;;;;;;;5028510;28;59545;-61
2023/06/03 14:25:50;;;;;;;2.57;1.03;;;;;;;;;;5026341;28;59212;-63
2023/06/03 14:28:16;;;;;;;1.85;0.68;;;;;;;;;;5026772;28;59209;-61
2023/06/03 14:30:41;;;;;;;0.60;0.60;;;;;;;;;;5029452;28;59459;-61
2023/06/03 14:33:06;;;;;;;1.60;0.60;;;;;;;;;;5027738;28;59583;-62
2023/06/03 14:35:32;;;;;;;2.53;0.70;;;;;;;;;;5028123;28;59505;-65
2023/06/03 14:37:57;;;;;;;1.17;0.63;;;;;;;;;;5026139;28;59496;-60
2023/06/03 14:40:22;;;;;;;1.00;0.50;;;;;;;;;;5027408;28;59354;-66